sensor_id;sensor_type;location;lat;lon;timestamp;P1;durP1;ratioP1;P2;durP2;ratioP2
7158;SDS011;63175;52.374;13.132;2023-11-21T00:01:04;2.47;;;2.00;;
7158;SDS011;63175;52.374;13.132;2023-11-21T00:03:33;2.70;;;1.67;;
7158;SDS011;63175;52.374;13.132;2023-11-21T00:06:00;2.70;;;2.00;;
7158;SDS011;63175;52.374;13.132;2023-11-21T00:08:27;2.20;;;1.77;;
7158;SDS011;63175;52.374;13.132;2023-11-21T00:10:54;1.70;;;1.60;;
7158;SDS011;63175;52.374;13.132;2023-11-21T00:13:21;3.13;;;1.80;;
7158;SDS011;63175;52.374;13.132;2023-11-21T00:15:49;2.53;;;1.80;;
7158;SDS011;63175;52.374;13.132;2023-11-21T00:18:17;1.50;;;1.40;;
7158;SDS011;63175;52.374;13.132;2023-11-21T00:20:44;1.10;;;1.10;;
7158;SDS011;63175;52.374;13.132;2023-11-21T00:23:11;2.87;;;2.63;;
7158;SDS011;63175;52.374;13.132;2023-11-21T00:25:38;1.93;;;1.13;;
7158;SDS011;63175;52.374;13.132;2023-11-21T00:28:05;0.90;;;0.90;;
7158;SDS011;63175;52.374;13.132;2023-11-21T00:30:32;3.13;;;1.10;;
7158;SDS011;63175;52.374;13.132;2023-11-21T00:32:59;1.63;;;1.00;;
7158;SDS011;63175;52.374;13.132;2023-11-21T00:35:27;1.40;;;1.30;;
7158;SDS011;63175;52.374;13.132;2023-11-21T00:37:54;1.20;;;1.10;;
7158;SDS011;63175;52.374;13.132;2023-11-21T00:40:21;0.90;;;0.90;;
7158;SDS011;63175;52.374;13.132;2023-11-21T00:42:48;1.63;;;0.80;;
7158;SDS011;63175;52.374;13.132;2023-11-21T00:45:15;2.70;;;1.33;;
7158;SDS011;63175;52.374;13.132;2023-11-21T00:47:42;1.23;;;0.83;;
7158;SDS011;63175;52.374;13.132;2023-11-21T00:50:09;2.73;;;2.53;;
7158;SDS011;63175;52.374;13.132;2023-11-21T00:52:37;2.37;;;2.27;;
7158;SDS011;63175;52.374;13.132;2023-11-21T00:55:04;2.73;;;2.60;;
7158;SDS011;63175;52.374;13.132;2023-11-21T00:57:32;3.23;;;3.03;;
7158;SDS011;63175;52.374;13.132;2023-11-21T00:59:59;2.70;;;2.60;;
7158;SDS011;63175;52.374;13.132;2023-11-21T01:02:26;3.37;;;3.17;;
7158;SDS011;63175;52.374;13.132;2023-11-21T01:04:54;3.20;;;3.10;;
7158;SDS011;63175;52.374;13.132;2023-11-21T01:07:20;4.30;;;4.00;;
7158;SDS011;63175;52.374;13.132;2023-11-21T01:09:49;5.60;;;5.00;;
7158;SDS011;63175;52.374;13.132;2023-11-21T01:12:16;5.10;;;4.63;;
7158;SDS011;63175;52.374;13.132;2023-11-21T01:14:44;5.10;;;4.70;;
7158;SDS011;63175;52.374;13.132;2023-11-21T01:17:11;5.53;;;5.03;;
7158;SDS011;63175;52.374;13.132;2023-11-21T01:19:38;5.70;;;5.20;;
7158;SDS011;63175;52.374;13.132;2023-11-21T01:22:05;5.60;;;5.10;;
7158;SDS011;63175;52.374;13.132;2023-11-21T01:24:32;5.83;;;5.33;;
7158;SDS011;63175;52.374;13.132;2023-11-21T01:27:00;5.40;;;5.00;;
7158;SDS011;63175;52.374;13.132;2023-11-21T01:29:27;5.77;;;5.03;;
7158;SDS011;63175;52.374;13.132;2023-11-21T01:31:54;9.47;;;7.80;;
7158;SDS011;63175;52.374;13.132;2023-11-21T01:34:22;7.67;;;6.87;;
7158;SDS011;63175;52.374;13.132;2023-11-21T01:36:49;7.20;;;6.20;;
7158;SDS011;63175;52.374;13.132;2023-11-21T01:39:17;8.50;;;6.90;;
7158;SDS011;63175;52.374;13.132;2023-11-21T01:41:48;9.40;;;7.03;;
7158;SDS011;63175;52.374;13.132;2023-11-21T01:44:17;9.90;;;7.27;;
7158;SDS011;63175;52.374;13.132;2023-11-21T01:46:45;8.60;;;6.80;;
7158;SDS011;63175;52.374;13.132;2023-11-21T01:49:12;8.63;;;6.80;;
7158;SDS011;63175;52.374;13.132;2023-11-21T01:51:40;11.00;;;7.67;;
7158;SDS011;63175;52.374;13.132;2023-11-21T01:54:08;7.63;;;6.30;;
7158;SDS011;63175;52.374;13.132;2023-11-21T01:56:36;10.50;;;7.30;;
7158;SDS011;63175;52.374;13.132;2023-11-21T01:59:04;11.07;;;7.30;;
7158;SDS011;63175;52.374;13.132;2023-11-21T02:01:33;8.60;;;6.70;;
7158;SDS011;63175;52.374;13.132;2023-11-21T02:04:01;14.97;;;7.10;;
7158;SDS011;63175;52.374;13.132;2023-11-21T02:06:28;10.47;;;6.93;;
7158;SDS011;63175;52.374;13.132;2023-11-21T02:08:56;12.70;;;6.90;;
7158;SDS011;63175;52.374;13.132;2023-11-21T02:11:24;9.53;;;6.60;;
7158;SDS011;63175;52.374;13.132;2023-11-21T02:13:52;9.00;;;6.77;;
7158;SDS011;63175;52.374;13.132;2023-11-21T02:16:20;9.30;;;6.33;;
7158;SDS011;63175;52.374;13.132;2023-11-21T02:18:48;8.50;;;6.37;;
7158;SDS011;63175;52.374;13.132;2023-11-21T02:21:15;12.50;;;8.43;;
7158;SDS011;63175;52.374;13.132;2023-11-21T02:23:44;10.73;;;6.60;;
7158;SDS011;63175;52.374;13.132;2023-11-21T02:26:11;7.93;;;5.80;;
7158;SDS011;63175;52.374;13.132;2023-11-21T02:28:39;10.13;;;6.30;;
7158;SDS011;63175;52.374;13.132;2023-11-21T02:31:06;12.07;;;6.20;;
7158;SDS011;63175;52.374;13.132;2023-11-21T02:33:32;8.50;;;5.93;;
7158;SDS011;63175;52.374;13.132;2023-11-21T02:35:59;8.87;;;5.87;;
7158;SDS011;63175;52.374;13.132;2023-11-21T02:38:26;7.20;;;5.67;;
7158;SDS011;63175;52.374;13.132;2023-11-21T02:40:55;7.10;;;5.33;;
7158;SDS011;63175;52.374;13.132;2023-11-21T02:43:24;6.27;;;4.80;;
7158;SDS011;63175;52.374;13.132;2023-11-21T02:45:51;8.63;;;5.60;;
7158;SDS011;63175;52.374;13.132;2023-11-21T02:48:17;6.77;;;4.90;;
7158;SDS011;63175;52.374;13.132;2023-11-21T02:50:45;6.27;;;4.90;;
7158;SDS011;63175;52.374;13.132;2023-11-21T02:53:12;9.13;;;5.40;;
7158;SDS011;63175;52.374;13.132;2023-11-21T02:55:40;10.80;;;4.90;;
7158;SDS011;63175;52.374;13.132;2023-11-21T02:58:08;6.30;;;4.40;;
7158;SDS011;63175;52.374;13.132;2023-11-21T03:00:35;5.40;;;4.10;;
7158;SDS011;63175;52.374;13.132;2023-11-21T03:03:01;5.13;;;4.10;;
7158;SDS011;63175;52.374;13.132;2023-11-21T03:05:29;4.93;;;4.33;;
7158;SDS011;63175;52.374;13.132;2023-11-21T03:07:56;5.00;;;4.23;;
7158;SDS011;63175;52.374;13.132;2023-11-21T03:10:23;4.13;;;3.73;;
7158;SDS011;63175;52.374;13.132;2023-11-21T03:12:49;6.40;;;4.20;;
7158;SDS011;63175;52.374;13.132;2023-11-21T03:15:18;4.57;;;4.00;;
7158;SDS011;63175;52.374;13.132;2023-11-21T03:17:44;6.17;;;4.00;;
7158;SDS011;63175;52.374;13.132;2023-11-21T03:20:14;4.43;;;3.73;;
7158;SDS011;63175;52.374;13.132;2023-11-21T03:22:41;5.00;;;4.27;;
7158;SDS011;63175;52.374;13.132;2023-11-21T03:25:08;5.93;;;4.97;;
7158;SDS011;63175;52.374;13.132;2023-11-21T03:27:36;4.17;;;3.77;;
7158;SDS011;63175;52.374;13.132;2023-11-21T03:30:04;7.40;;;4.93;;
7158;SDS011;63175;52.374;13.132;2023-11-21T03:32:34;5.10;;;4.60;;
7158;SDS011;63175;52.374;13.132;2023-11-21T03:35:01;5.00;;;4.60;;
7158;SDS011;63175;52.374;13.132;2023-11-21T03:37:28;4.73;;;4.33;;
7158;SDS011;63175;52.374;13.132;2023-11-21T03:39:55;5.10;;;4.20;;
7158;SDS011;63175;52.374;13.132;2023-11-21T03:42:22;4.83;;;4.20;;
7158;SDS011;63175;52.374;13.132;2023-11-21T03:44:50;8.03;;;5.07;;
7158;SDS011;63175;52.374;13.132;2023-11-21T03:47:17;4.67;;;4.30;;
7158;SDS011;63175;52.374;13.132;2023-11-21T03:49:46;4.60;;;4.20;;
7158;SDS011;63175;52.374;13.132;2023-11-21T03:52:13;4.40;;;4.00;;
7158;SDS011;63175;52.374;13.132;2023-11-21T03:54:40;4.97;;;4.47;;
7158;SDS011;63175;52.374;13.132;2023-11-21T03:57:08;5.03;;;4.53;;
7158;SDS011;63175;52.374;13.132;2023-11-21T03:59:35;5.03;;;4.63;;
7158;SDS011;63175;52.374;13.132;2023-11-21T04:02:02;5.97;;;5.37;;
7158;SDS011;63175;52.374;13.132;2023-11-21T04:04:29;5.10;;;4.60;;
7158;SDS011;63175;52.374;13.132;2023-11-21T04:06:57;6.13;;;4.90;;
7158;SDS011;63175;52.374;13.132;2023-11-21T04:09:24;5.50;;;5.00;;
7158;SDS011;63175;52.374;13.132;2023-11-21T04:11:51;6.07;;;5.57;;
7158;SDS011;63175;52.374;13.132;2023-11-21T04:14:18;7.33;;;6.17;;
7158;SDS011;63175;52.374;13.132;2023-11-21T04:16:45;5.50;;;5.03;;
7158;SDS011;63175;52.374;13.132;2023-11-21T04:19:12;5.93;;;5.43;;
7158;SDS011;63175;52.374;13.132;2023-11-21T04:21:39;5.47;;;5.07;;
7158;SDS011;63175;52.374;13.132;2023-11-21T04:24:08;5.57;;;5.07;;
7158;SDS011;63175;52.374;13.132;2023-11-21T04:26:35;6.20;;;5.60;;
7158;SDS011;63175;52.374;13.132;2023-11-21T04:29:02;7.90;;;6.23;;
7158;SDS011;63175;52.374;13.132;2023-11-21T04:31:29;6.13;;;5.53;;
7158;SDS011;63175;52.374;13.132;2023-11-21T04:33:56;6.00;;;5.50;;
7158;SDS011;63175;52.374;13.132;2023-11-21T04:36:23;7.17;;;5.97;;
7158;SDS011;63175;52.374;13.132;2023-11-21T04:38:50;6.13;;;5.60;;
7158;SDS011;63175;52.374;13.132;2023-11-21T04:41:18;6.40;;;5.87;;
7158;SDS011;63175;52.374;13.132;2023-11-21T04:43:45;6.53;;;5.90;;
7158;SDS011;63175;52.374;13.132;2023-11-21T04:46:12;6.00;;;5.50;;
7158;SDS011;63175;52.374;13.132;2023-11-21T04:48:39;8.40;;;7.50;;
7158;SDS011;63175;52.374;13.132;2023-11-21T04:51:06;6.43;;;5.83;;
7158;SDS011;63175;52.374;13.132;2023-11-21T04:53:33;8.13;;;5.90;;
7158;SDS011;63175;52.374;13.132;2023-11-21T04:56:01;7.10;;;6.50;;
7158;SDS011;63175;52.374;13.132;2023-11-21T04:58:30;6.33;;;5.73;;
7158;SDS011;63175;52.374;13.132;2023-11-21T05:00:58;7.30;;;6.57;;
7158;SDS011;63175;52.374;13.132;2023-11-21T05:03:24;7.17;;;6.17;;
7158;SDS011;63175;52.374;13.132;2023-11-21T05:05:51;6.80;;;5.70;;
7158;SDS011;63175;52.374;13.132;2023-11-21T05:08:18;6.30;;;5.80;;
7158;SDS011;63175;52.374;13.132;2023-11-21T05:10:45;5.33;;;4.83;;
7158;SDS011;63175;52.374;13.132;2023-11-21T05:13:13;6.07;;;5.47;;
7158;SDS011;63175;52.374;13.132;2023-11-21T05:15:44;6.47;;;5.87;;
7158;SDS011;63175;52.374;13.132;2023-11-21T05:18:11;7.37;;;5.70;;
7158;SDS011;63175;52.374;13.132;2023-11-21T05:20:38;5.50;;;5.00;;
7158;SDS011;63175;52.374;13.132;2023-11-21T05:23:06;5.47;;;4.97;;
7158;SDS011;63175;52.374;13.132;2023-11-21T05:25:33;5.73;;;5.13;;
7158;SDS011;63175;52.374;13.132;2023-11-21T05:28:00;5.20;;;4.70;;
7158;SDS011;63175;52.374;13.132;2023-11-21T05:30:27;6.20;;;5.20;;
7158;SDS011;63175;52.374;13.132;2023-11-21T05:32:56;7.10;;;5.53;;
7158;SDS011;63175;52.374;13.132;2023-11-21T05:35:22;5.83;;;5.30;;
7158;SDS011;63175;52.374;13.132;2023-11-21T05:37:49;5.27;;;4.77;;
7158;SDS011;63175;52.374;13.132;2023-11-21T05:40:16;5.80;;;5.30;;
7158;SDS011;63175;52.374;13.132;2023-11-21T05:42:43;5.23;;;4.83;;
7158;SDS011;63175;52.374;13.132;2023-11-21T05:45:10;5.87;;;5.27;;
7158;SDS011;63175;52.374;13.132;2023-11-21T05:47:38;5.17;;;4.67;;
7158;SDS011;63175;52.374;13.132;2023-11-21T05:50:08;7.07;;;5.27;;
7158;SDS011;63175;52.374;13.132;2023-11-21T05:52:37;6.40;;;5.67;;
7158;SDS011;63175;52.374;13.132;2023-11-21T05:55:04;5.07;;;4.60;;
7158;SDS011;63175;52.374;13.132;2023-11-21T05:57:32;7.40;;;5.87;;
7158;SDS011;63175;52.374;13.132;2023-11-21T06:00:01;7.27;;;6.07;;
7158;SDS011;63175;52.374;13.132;2023-11-21T06:02:36;7.23;;;6.53;;
7158;SDS011;63175;52.374;13.132;2023-11-21T06:05:03;5.73;;;5.23;;
7158;SDS011;63175;52.374;13.132;2023-11-21T06:07:32;5.90;;;5.40;;
7158;SDS011;63175;52.374;13.132;2023-11-21T06:09:59;5.77;;;5.17;;
7158;SDS011;63175;52.374;13.132;2023-11-21T06:12:27;5.60;;;5.03;;
7158;SDS011;63175;52.374;13.132;2023-11-21T06:14:54;5.27;;;4.80;;
7158;SDS011;63175;52.374;13.132;2023-11-21T06:17:21;6.60;;;5.87;;
7158;SDS011;63175;52.374;13.132;2023-11-21T06:19:50;7.27;;;5.73;;
7158;SDS011;63175;52.374;13.132;2023-11-21T06:22:18;6.27;;;5.03;;
7158;SDS011;63175;52.374;13.132;2023-11-21T06:24:46;7.37;;;5.60;;
7158;SDS011;63175;52.374;13.132;2023-11-21T06:27:13;7.97;;;5.60;;
7158;SDS011;63175;52.374;13.132;2023-11-21T06:29:41;8.87;;;6.53;;
7158;SDS011;63175;52.374;13.132;2023-11-21T06:32:08;6.10;;;5.30;;
7158;SDS011;63175;52.374;13.132;2023-11-21T06:34:35;6.10;;;5.50;;
7158;SDS011;63175;52.374;13.132;2023-11-21T06:37:02;6.57;;;5.97;;
7158;SDS011;63175;52.374;13.132;2023-11-21T06:39:29;6.37;;;5.43;;
7158;SDS011;63175;52.374;13.132;2023-11-21T06:41:57;6.17;;;5.60;;
7158;SDS011;63175;52.374;13.132;2023-11-21T06:44:25;5.80;;;4.87;;
7158;SDS011;63175;52.374;13.132;2023-11-21T06:46:52;5.50;;;4.93;;
7158;SDS011;63175;52.374;13.132;2023-11-21T06:49:19;5.40;;;4.90;;
7158;SDS011;63175;52.374;13.132;2023-11-21T06:51:46;5.47;;;5.00;;
7158;SDS011;63175;52.374;13.132;2023-11-21T06:54:13;7.27;;;6.57;;
7158;SDS011;63175;52.374;13.132;2023-11-21T06:56:39;6.57;;;5.87;;
7158;SDS011;63175;52.374;13.132;2023-11-21T06:59:07;5.90;;;5.30;;
7158;SDS011;63175;52.374;13.132;2023-11-21T07:01:35;5.90;;;4.70;;
7158;SDS011;63175;52.374;13.132;2023-11-21T07:04:04;6.00;;;5.40;;
7158;SDS011;63175;52.374;13.132;2023-11-21T07:06:31;5.87;;;5.10;;
7158;SDS011;63175;52.374;13.132;2023-11-21T07:08:58;5.40;;;4.90;;
7158;SDS011;63175;52.374;13.132;2023-11-21T07:11:26;5.93;;;5.07;;
7158;SDS011;63175;52.374;13.132;2023-11-21T07:13:53;5.70;;;5.10;;
7158;SDS011;63175;52.374;13.132;2023-11-21T07:16:21;7.60;;;6.10;;
7158;SDS011;63175;52.374;13.132;2023-11-21T07:18:48;5.60;;;5.10;;
7158;SDS011;63175;52.374;13.132;2023-11-21T07:21:15;4.83;;;4.33;;
7158;SDS011;63175;52.374;13.132;2023-11-21T07:23:42;6.23;;;5.07;;
7158;SDS011;63175;52.374;13.132;2023-11-21T07:26:09;6.63;;;5.23;;
7158;SDS011;63175;52.374;13.132;2023-11-21T07:28:36;5.37;;;4.87;;
7158;SDS011;63175;52.374;13.132;2023-11-21T07:31:03;5.67;;;5.10;;
7158;SDS011;63175;52.374;13.132;2023-11-21T07:33:32;5.33;;;4.80;;
7158;SDS011;63175;52.374;13.132;2023-11-21T07:35:59;6.27;;;4.90;;
7158;SDS011;63175;52.374;13.132;2023-11-21T07:38:26;5.10;;;4.67;;
7158;SDS011;63175;52.374;13.132;2023-11-21T07:40:53;4.30;;;3.90;;
7158;SDS011;63175;52.374;13.132;2023-11-21T07:43:20;4.87;;;4.17;;
7158;SDS011;63175;52.374;13.132;2023-11-21T07:45:47;4.17;;;3.80;;
7158;SDS011;63175;52.374;13.132;2023-11-21T07:48:14;4.23;;;3.57;;
7158;SDS011;63175;52.374;13.132;2023-11-21T07:50:42;3.07;;;2.87;;
7158;SDS011;63175;52.374;13.132;2023-11-21T07:53:09;3.37;;;3.13;;
7158;SDS011;63175;52.374;13.132;2023-11-21T07:55:36;3.30;;;3.00;;
7158;SDS011;63175;52.374;13.132;2023-11-21T07:58:03;3.37;;;3.07;;
7158;SDS011;63175;52.374;13.132;2023-11-21T08:00:30;3.23;;;2.93;;
7158;SDS011;63175;52.374;13.132;2023-11-21T08:02:56;3.30;;;3.10;;
7158;SDS011;63175;52.374;13.132;2023-11-21T08:05:23;2.80;;;2.60;;
7158;SDS011;63175;52.374;13.132;2023-11-21T08:07:52;2.73;;;2.60;;
7158;SDS011;63175;52.374;13.132;2023-11-21T08:10:19;3.70;;;3.40;;
7158;SDS011;63175;52.374;13.132;2023-11-21T08:12:46;3.13;;;2.93;;
7158;SDS011;63175;52.374;13.132;2023-11-21T08:15:16;3.27;;;2.97;;
7158;SDS011;63175;52.374;13.132;2023-11-21T08:17:43;2.40;;;2.20;;
7158;SDS011;63175;52.374;13.132;2023-11-21T08:20:10;3.00;;;2.80;;
7158;SDS011;63175;52.374;13.132;2023-11-21T08:22:37;4.13;;;2.40;;
7158;SDS011;63175;52.374;13.132;2023-11-21T08:25:07;2.70;;;2.50;;
7158;SDS011;63175;52.374;13.132;2023-11-21T08:27:35;2.50;;;2.30;;
7158;SDS011;63175;52.374;13.132;2023-11-21T08:30:02;2.40;;;2.30;;
7158;SDS011;63175;52.374;13.132;2023-11-21T08:32:29;2.63;;;2.43;;
7158;SDS011;63175;52.374;13.132;2023-11-21T08:34:57;2.43;;;2.23;;
7158;SDS011;63175;52.374;13.132;2023-11-21T08:37:24;2.77;;;2.60;;
7158;SDS011;63175;52.374;13.132;2023-11-21T08:39:52;2.30;;;2.20;;
7158;SDS011;63175;52.374;13.132;2023-11-21T08:42:20;2.80;;;2.60;;
7158;SDS011;63175;52.374;13.132;2023-11-21T08:44:48;2.90;;;2.70;;
7158;SDS011;63175;52.374;13.132;2023-11-21T08:47:15;2.67;;;2.50;;
7158;SDS011;63175;52.374;13.132;2023-11-21T08:49:41;2.60;;;2.40;;
7158;SDS011;63175;52.374;13.132;2023-11-21T08:52:08;2.40;;;2.20;;
7158;SDS011;63175;52.374;13.132;2023-11-21T08:54:35;2.50;;;2.30;;
7158;SDS011;63175;52.374;13.132;2023-11-21T08:57:02;2.33;;;2.10;;
7158;SDS011;63175;52.374;13.132;2023-11-21T08:59:31;2.40;;;2.20;;
7158;SDS011;63175;52.374;13.132;2023-11-21T09:01:58;2.63;;;2.53;;
7158;SDS011;63175;52.374;13.132;2023-11-21T09:04:25;2.57;;;2.40;;
7158;SDS011;63175;52.374;13.132;2023-11-21T09:06:52;3.50;;;3.20;;
7158;SDS011;63175;52.374;13.132;2023-11-21T09:09:19;3.10;;;2.90;;
7158;SDS011;63175;52.374;13.132;2023-11-21T09:11:46;3.33;;;2.97;;
7158;SDS011;63175;52.374;13.132;2023-11-21T09:14:14;3.70;;;3.17;;
7158;SDS011;63175;52.374;13.132;2023-11-21T09:16:44;2.43;;;2.23;;
7158;SDS011;63175;52.374;13.132;2023-11-21T09:19:12;3.20;;;3.00;;
7158;SDS011;63175;52.374;13.132;2023-11-21T09:21:40;2.70;;;2.50;;
7158;SDS011;63175;52.374;13.132;2023-11-21T09:24:07;2.77;;;2.57;;
7158;SDS011;63175;52.374;13.132;2023-11-21T09:26:35;5.07;;;2.60;;
7158;SDS011;63175;52.374;13.132;2023-11-21T09:29:02;3.87;;;3.30;;
7158;SDS011;63175;52.374;13.132;2023-11-21T09:31:29;3.50;;;3.20;;
7158;SDS011;63175;52.374;13.132;2023-11-21T09:33:57;3.53;;;3.33;;
7158;SDS011;63175;52.374;13.132;2023-11-21T09:36:24;3.80;;;2.90;;
7158;SDS011;63175;52.374;13.132;2023-11-21T09:38:53;3.53;;;3.23;;
7158;SDS011;63175;52.374;13.132;2023-11-21T09:41:21;3.67;;;3.43;;
7158;SDS011;63175;52.374;13.132;2023-11-21T09:44:00;2.87;;;2.67;;
7158;SDS011;63175;52.374;13.132;2023-11-21T09:46:32;3.07;;;2.87;;
7158;SDS011;63175;52.374;13.132;2023-11-21T09:49:01;3.17;;;2.97;;
7158;SDS011;63175;52.374;13.132;2023-11-21T09:51:33;3.03;;;2.83;;
7158;SDS011;63175;52.374;13.132;2023-11-21T09:54:03;2.90;;;2.70;;
7158;SDS011;63175;52.374;13.132;2023-11-21T09:56:34;2.93;;;2.60;;
7158;SDS011;63175;52.374;13.132;2023-11-21T09:59:01;3.80;;;3.40;;
7158;SDS011;63175;52.374;13.132;2023-11-21T10:01:33;4.10;;;3.20;;
7158;SDS011;63175;52.374;13.132;2023-11-21T10:04:04;3.17;;;2.87;;
7158;SDS011;63175;52.374;13.132;2023-11-21T10:06:36;2.70;;;2.50;;
7158;SDS011;63175;52.374;13.132;2023-11-21T10:09:05;3.00;;;2.80;;
7158;SDS011;63175;52.374;13.132;2023-11-21T10:11:36;3.03;;;2.80;;
7158;SDS011;63175;52.374;13.132;2023-11-21T10:14:06;3.07;;;2.87;;
7158;SDS011;63175;52.374;13.132;2023-11-21T10:16:38;2.70;;;2.50;;
7158;SDS011;63175;52.374;13.132;2023-11-21T10:19:07;2.67;;;2.47;;
7158;SDS011;63175;52.374;13.132;2023-11-21T10:21:36;2.60;;;2.33;;
7158;SDS011;63175;52.374;13.132;2023-11-21T10:24:05;2.40;;;2.20;;
7158;SDS011;63175;52.374;13.132;2023-11-21T10:26:32;2.47;;;2.37;;
7158;SDS011;63175;52.374;13.132;2023-11-21T10:29:01;2.13;;;2.03;;
7158;SDS011;63175;52.374;13.132;2023-11-21T10:31:29;2.30;;;2.10;;
7158;SDS011;63175;52.374;13.132;2023-11-21T10:33:57;2.00;;;1.90;;
7158;SDS011;63175;52.374;13.132;2023-11-21T10:36:40;2.63;;;2.43;;
7158;SDS011;63175;52.374;13.132;2023-11-21T10:39:07;2.27;;;2.17;;
7158;SDS011;63175;52.374;13.132;2023-11-21T10:41:34;1.90;;;1.80;;
7158;SDS011;63175;52.374;13.132;2023-11-21T10:44:02;2.73;;;2.43;;
7158;SDS011;63175;52.374;13.132;2023-11-21T10:46:32;3.60;;;3.30;;
7158;SDS011;63175;52.374;13.132;2023-11-21T10:49:00;3.50;;;3.20;;
7158;SDS011;63175;52.374;13.132;2023-11-21T10:51:27;3.37;;;3.07;;
7158;SDS011;63175;52.374;13.132;2023-11-21T10:53:55;2.73;;;2.40;;
7158;SDS011;63175;52.374;13.132;2023-11-21T10:56:23;2.97;;;2.77;;
7158;SDS011;63175;52.374;13.132;2023-11-21T10:58:51;2.70;;;2.50;;
7158;SDS011;63175;52.374;13.132;2023-11-21T11:01:19;2.97;;;2.73;;
7158;SDS011;63175;52.374;13.132;2023-11-21T11:03:47;2.60;;;2.40;;
7158;SDS011;63175;52.374;13.132;2023-11-21T11:06:14;3.07;;;2.77;;
7158;SDS011;63175;52.374;13.132;2023-11-21T11:08:42;2.40;;;2.30;;
7158;SDS011;63175;52.374;13.132;2023-11-21T11:11:12;3.47;;;3.17;;
7158;SDS011;63175;52.374;13.132;2023-11-21T11:13:39;2.80;;;2.60;;
7158;SDS011;63175;52.374;13.132;2023-11-21T11:16:10;2.70;;;2.50;;
7158;SDS011;63175;52.374;13.132;2023-11-21T11:18:42;2.53;;;2.33;;
7158;SDS011;63175;52.374;13.132;2023-11-21T11:21:11;2.63;;;2.43;;
7158;SDS011;63175;52.374;13.132;2023-11-21T11:23:58;2.77;;;2.57;;
7158;SDS011;63175;52.374;13.132;2023-11-21T11:26:40;3.03;;;2.47;;
7158;SDS011;63175;52.374;13.132;2023-11-21T11:29:14;3.10;;;2.90;;
7158;SDS011;63175;52.374;13.132;2023-11-21T11:31:52;3.40;;;3.10;;
7158;SDS011;63175;52.374;13.132;2023-11-21T11:34:32;4.23;;;3.80;;
7158;SDS011;63175;52.374;13.132;2023-11-21T11:37:04;2.90;;;2.50;;
7158;SDS011;63175;52.374;13.132;2023-11-21T11:39:35;3.33;;;3.13;;
7158;SDS011;63175;52.374;13.132;2023-11-21T11:42:05;2.90;;;2.70;;
7158;SDS011;63175;52.374;13.132;2023-11-21T11:44:47;2.83;;;2.67;;
7158;SDS011;63175;52.374;13.132;2023-11-21T11:47:16;4.70;;;3.23;;
7158;SDS011;63175;52.374;13.132;2023-11-21T11:49:56;2.33;;;2.23;;
7158;SDS011;63175;52.374;13.132;2023-11-21T11:52:39;2.87;;;2.67;;
7158;SDS011;63175;52.374;13.132;2023-11-21T11:55:08;4.00;;;3.10;;
7158;SDS011;63175;52.374;13.132;2023-11-21T11:57:38;2.80;;;2.60;;
7158;SDS011;63175;52.374;13.132;2023-11-21T12:00:09;2.77;;;2.57;;
7158;SDS011;63175;52.374;13.132;2023-11-21T12:02:41;3.40;;;3.10;;
7158;SDS011;63175;52.374;13.132;2023-11-21T12:05:09;3.43;;;3.13;;
7158;SDS011;63175;52.374;13.132;2023-11-21T12:07:44;3.00;;;2.73;;
7158;SDS011;63175;52.374;13.132;2023-11-21T12:10:13;3.07;;;2.80;;
7158;SDS011;63175;52.374;13.132;2023-11-21T12:12:44;4.10;;;3.63;;
7158;SDS011;63175;52.374;13.132;2023-11-21T12:15:12;4.17;;;2.97;;
7158;SDS011;63175;52.374;13.132;2023-11-21T12:17:39;2.80;;;2.70;;
7158;SDS011;63175;52.374;13.132;2023-11-21T12:20:09;4.03;;;3.57;;
7158;SDS011;63175;52.374;13.132;2023-11-21T12:22:43;4.20;;;3.80;;
7158;SDS011;63175;52.374;13.132;2023-11-21T12:25:13;4.77;;;3.40;;
7158;SDS011;63175;52.374;13.132;2023-11-21T12:27:46;3.60;;;3.30;;
7158;SDS011;63175;52.374;13.132;2023-11-21T12:30:14;3.67;;;3.20;;
7158;SDS011;63175;52.374;13.132;2023-11-21T12:32:43;3.03;;;2.80;;
7158;SDS011;63175;52.374;13.132;2023-11-21T12:35:11;2.70;;;2.50;;
7158;SDS011;63175;52.374;13.132;2023-11-21T12:37:38;3.43;;;2.70;;
7158;SDS011;63175;52.374;13.132;2023-11-21T12:40:08;3.23;;;3.03;;
7158;SDS011;63175;52.374;13.132;2023-11-21T12:42:37;2.97;;;2.53;;
7158;SDS011;63175;52.374;13.132;2023-11-21T12:45:10;2.50;;;2.30;;
7158;SDS011;63175;52.374;13.132;2023-11-21T12:47:45;3.27;;;2.47;;
7158;SDS011;63175;52.374;13.132;2023-11-21T12:50:13;2.40;;;2.20;;
7158;SDS011;63175;52.374;13.132;2023-11-21T12:52:41;4.20;;;2.93;;
7158;SDS011;63175;52.374;13.132;2023-11-21T12:55:13;3.17;;;2.87;;
7158;SDS011;63175;52.374;13.132;2023-11-21T12:57:42;3.27;;;2.97;;
7158;SDS011;63175;52.374;13.132;2023-11-21T13:00:11;3.30;;;3.00;;
7158;SDS011;63175;52.374;13.132;2023-11-21T13:02:49;2.60;;;2.40;;
7158;SDS011;63175;52.374;13.132;2023-11-21T13:05:23;2.90;;;2.70;;
7158;SDS011;63175;52.374;13.132;2023-11-21T13:07:51;4.13;;;3.20;;
7158;SDS011;63175;52.374;13.132;2023-11-21T13:10:19;3.37;;;2.70;;
7158;SDS011;63175;52.374;13.132;2023-11-21T13:12:51;4.17;;;3.47;;
7158;SDS011;63175;52.374;13.132;2023-11-21T13:15:21;5.57;;;3.33;;
7158;SDS011;63175;52.374;13.132;2023-11-21T13:17:48;4.40;;;2.87;;
7158;SDS011;63175;52.374;13.132;2023-11-21T13:20:16;3.57;;;2.57;;
7158;SDS011;63175;52.374;13.132;2023-11-21T13:22:48;4.37;;;2.93;;
7158;SDS011;63175;52.374;13.132;2023-11-21T13:25:16;3.17;;;2.87;;
7158;SDS011;63175;52.374;13.132;2023-11-21T13:27:44;2.80;;;2.50;;
7158;SDS011;63175;52.374;13.132;2023-11-21T13:30:12;2.50;;;2.30;;
7158;SDS011;63175;52.374;13.132;2023-11-21T13:32:45;2.57;;;2.37;;
7158;SDS011;63175;52.374;13.132;2023-11-21T13:35:13;3.50;;;2.37;;
7158;SDS011;63175;52.374;13.132;2023-11-21T13:37:48;3.07;;;2.77;;
7158;SDS011;63175;52.374;13.132;2023-11-21T13:40:20;3.70;;;3.23;;
7158;SDS011;63175;52.374;13.132;2023-11-21T13:42:50;2.40;;;2.17;;
7158;SDS011;63175;52.374;13.132;2023-11-21T13:45:19;2.97;;;2.70;;
7158;SDS011;63175;52.374;13.132;2023-11-21T13:47:49;4.17;;;3.23;;
7158;SDS011;63175;52.374;13.132;2023-11-21T13:50:22;4.20;;;3.63;;
7158;SDS011;63175;52.374;13.132;2023-11-21T13:52:54;4.77;;;4.30;;
7158;SDS011;63175;52.374;13.132;2023-11-21T13:55:21;7.43;;;4.70;;
7158;SDS011;63175;52.374;13.132;2023-11-21T13:57:50;5.90;;;5.10;;
7158;SDS011;63175;52.374;13.132;2023-11-21T14:00:17;6.07;;;4.70;;
7158;SDS011;63175;52.374;13.132;2023-11-21T14:03:04;3.77;;;3.47;;
7158;SDS011;63175;52.374;13.132;2023-11-21T14:05:36;6.23;;;4.50;;
7158;SDS011;63175;52.374;13.132;2023-11-21T14:08:04;4.40;;;4.00;;
7158;SDS011;63175;52.374;13.132;2023-11-21T14:10:31;5.43;;;4.87;;
7158;SDS011;63175;52.374;13.132;2023-11-21T14:13:05;5.90;;;4.80;;
7158;SDS011;63175;52.374;13.132;2023-11-21T14:15:32;4.60;;;3.90;;
7158;SDS011;63175;52.374;13.132;2023-11-21T14:18:04;4.50;;;4.10;;
7158;SDS011;63175;52.374;13.132;2023-11-21T14:20:35;5.53;;;4.33;;
7158;SDS011;63175;52.374;13.132;2023-11-21T14:23:02;6.50;;;4.70;;
7158;SDS011;63175;52.374;13.132;2023-11-21T14:25:29;5.37;;;4.87;;
7158;SDS011;63175;52.374;13.132;2023-11-21T14:27:57;5.87;;;4.97;;
7158;SDS011;63175;52.374;13.132;2023-11-21T14:30:24;8.53;;;5.83;;
7158;SDS011;63175;52.374;13.132;2023-11-21T14:32:52;8.03;;;6.03;;
7158;SDS011;63175;52.374;13.132;2023-11-21T14:35:20;8.77;;;6.53;;
7158;SDS011;63175;52.374;13.132;2023-11-21T14:37:47;8.63;;;6.83;;
7158;SDS011;63175;52.374;13.132;2023-11-21T14:40:14;7.40;;;5.80;;
7158;SDS011;63175;52.374;13.132;2023-11-21T14:42:42;9.30;;;7.20;;
7158;SDS011;63175;52.374;13.132;2023-11-21T14:45:13;6.33;;;5.63;;
7158;SDS011;63175;52.374;13.132;2023-11-21T14:47:44;7.07;;;6.00;;
7158;SDS011;63175;52.374;13.132;2023-11-21T14:50:20;7.10;;;6.17;;
7158;SDS011;63175;52.374;13.132;2023-11-21T14:53:05;9.10;;;6.50;;
7158;SDS011;63175;52.374;13.132;2023-11-21T14:55:33;8.10;;;6.60;;